sensor_id;sensor_type;location;lat;lon;timestamp;pressure;altitude;pressure_sealevel;temperature;humidity
4570;BME280;2297;51.442;6.996;2023-04-22T00:00:45;99598.28;;;13.55;52.65
4570;BME280;2297;51.442;6.996;2023-04-22T00:03:12;99596.44;;;13.57;52.53
4570;BME280;2297;51.442;6.996;2023-04-22T00:05:39;99596.44;;;13.57;52.39
4570;BME280;2297;51.442;6.996;2023-04-22T00:08:06;99592.88;;;13.58;52.28
4570;BME280;2297;51.442;6.996;2023-04-22T00:10:34;99588.63;;;13.54;52.55
4570;BME280;2297;51.442;6.996;2023-04-22T00:13:00;99592.28;;;13.51;52.70
4570;BME280;2297;51.442;6.996;2023-04-22T00:15:36;99587.69;;;13.55;52.70
4570;BME280;2297;51.442;6.996;2023-04-22T00:18:03;99582.53;;;13.52;52.60
4570;BME280;2297;51.442;6.996;2023-04-22T00:20:31;99585.09;;;13.53;52.50
4570;BME280;2297;51.442;6.996;2023-04-22T00:22:58;99572.84;;;13.51;52.42
4570;BME280;2297;51.442;6.996;2023-04-22T00:25:24;99571.13;;;13.50;52.37
4570;BME280;2297;51.442;6.996;2023-04-22T00:27:52;99574.91;;;13.44;52.23
4570;BME280;2297;51.442;6.996;2023-04-22T00:30:19;99583.34;;;13.33;52.56
4570;BME280;2297;51.442;6.996;2023-04-22T00:32:45;99573.81;;;13.29;52.58
4570;BME280;2297;51.442;6.996;2023-04-22T00:35:13;99577.13;;;13.34;52.78
4570;BME280;2297;51.442;6.996;2023-04-22T00:37:40;99570.75;;;13.38;52.85
4570;BME280;2297;51.442;6.996;2023-04-22T00:40:07;99571.59;;;13.39;52.17
4570;BME280;2297;51.442;6.996;2023-04-22T00:42:36;99565.84;;;13.29;52.55
4570;BME280;2297;51.442;6.996;2023-04-22T00:45:09;99571.00;;;13.32;52.50
4570;BME280;2297;51.442;6.996;2023-04-22T00:47:36;99567.69;;;13.27;52.37
4570;BME280;2297;51.442;6.996;2023-04-22T00:50:04;99564.19;;;13.26;52.57
4570;BME280;2297;51.442;6.996;2023-04-22T00:52:31;99560.69;;;13.26;52.39
4570;BME280;2297;51.442;6.996;2023-04-22T00:54:58;99564.25;;;13.25;52.44
4570;BME280;2297;51.442;6.996;2023-04-22T00:57:25;99560.69;;;13.26;52.51
4570;BME280;2297;51.442;6.996;2023-04-22T00:59:52;99557.22;;;13.24;52.82
4570;BME280;2297;51.442;6.996;2023-04-22T01:02:22;99563.38;;;13.24;52.61
4570;BME280;2297;51.442;6.996;2023-04-22T01:04:48;99560.81;;;13.23;52.56
4570;BME280;2297;51.442;6.996;2023-04-22T01:07:15;99558.97;;;13.25;52.58
4570;BME280;2297;51.442;6.996;2023-04-22T01:09:42;99562.38;;;13.27;52.16
4570;BME280;2297;51.442;6.996;2023-04-22T01:12:08;99555.38;;;13.26;52.14
4570;BME280;2297;51.442;6.996;2023-04-22T01:14:36;99564.13;;;13.28;52.15
4570;BME280;2297;51.442;6.996;2023-04-22T01:17:03;99558.69;;;13.31;52.19
4570;BME280;2297;51.442;6.996;2023-04-22T01:19:32;99556.81;;;13.33;52.25
4570;BME280;2297;51.442;6.996;2023-04-22T01:22:00;99560.28;;;13.35;51.87
4570;BME280;2297;51.442;6.996;2023-04-22T01:24:28;99562.13;;;13.33;51.67
4570;BME280;2297;51.442;6.996;2023-04-22T01:26:55;99568.28;;;13.34;51.95
4570;BME280;2297;51.442;6.996;2023-04-22T01:29:23;99571.00;;;13.32;51.68
4570;BME280;2297;51.442;6.996;2023-04-22T01:31:50;99567.69;;;13.27;51.66
4570;BME280;2297;51.442;6.996;2023-04-22T01:34:16;99566.84;;;13.26;51.83
4570;BME280;2297;51.442;6.996;2023-04-22T01:36:43;99568.69;;;13.24;51.70
4570;BME280;2297;51.442;6.996;2023-04-22T01:39:10;99572.22;;;13.25;51.69
4570;BME280;2297;51.442;6.996;2023-04-22T01:41:38;99555.59;;;13.20;51.73
4570;BME280;2297;51.442;6.996;2023-04-22T01:44:05;99562.13;;;13.12;51.61
4570;BME280;2297;51.442;6.996;2023-04-22T01:46:32;99565.03;;;13.06;51.84
4570;BME280;2297;51.442;6.996;2023-04-22T01:49:01;99561.56;;;13.04;51.97
4570;BME280;2297;51.442;6.996;2023-04-22T01:51:28;99559.72;;;13.06;52.03
4570;BME280;2297;51.442;6.996;2023-04-22T01:53:56;99559.72;;;13.06;51.73
4570;BME280;2297;51.442;6.996;2023-04-22T01:56:23;99558.00;;;13.05;51.99
4570;BME280;2297;51.442;6.996;2023-04-22T01:58:51;99556.25;;;13.04;51.90
4570;BME280;2297;51.442;6.996;2023-04-22T02:01:17;99561.56;;;13.04;51.76
4570;BME280;2297;51.442;6.996;2023-04-22T02:03:44;99557.22;;;13.03;51.86
4570;BME280;2297;51.442;6.996;2023-04-22T02:06:11;99553.75;;;13.01;51.52
4570;BME280;2297;51.442;6.996;2023-04-22T02:08:37;99557.22;;;13.03;51.53
4570;BME280;2297;51.442;6.996;2023-04-22T02:11:04;99557.25;;;13.02;51.27
4570;BME280;2297;51.442;6.996;2023-04-22T02:13:35;99555.56;;;13.01;51.61
4570;BME280;2297;51.442;6.996;2023-04-22T02:16:04;99559.13;;;13.00;51.45
4570;BME280;2297;51.442;6.996;2023-04-22T02:18:31;99559.13;;;13.00;51.36
4570;BME280;2297;51.442;6.996;2023-04-22T02:20:57;99556.59;;;12.96;51.48
4570;BME280;2297;51.442;6.996;2023-04-22T02:23:24;99554.69;;;13.00;51.29
4570;BME280;2297;51.442;6.996;2023-04-22T02:25:52;99546.66;;;13.02;51.14
4570;BME280;2297;51.442;6.996;2023-04-22T02:28:19;99552.94;;;12.99;51.20
4570;BME280;2297;51.442;6.996;2023-04-22T02:30:46;99552.69;;;13.05;51.17
4570;BME280;2297;51.442;6.996;2023-04-22T02:33:14;99543.00;;;13.04;50.95
4570;BME280;2297;51.442;6.996;2023-04-22T02:35:40;99539.66;;;13.01;51.19
4570;BME280;2297;51.442;6.996;2023-04-22T02:38:07;99542.16;;;13.04;51.23
4570;BME280;2297;51.442;6.996;2023-04-22T02:40:33;99536.78;;;13.05;51.11
4570;BME280;2297;51.442;6.996;2023-04-22T02:43:00;99538.66;;;13.03;51.08
4570;BME280;2297;51.442;6.996;2023-04-22T02:45:27;99543.81;;;13.06;51.16
4570;BME280;2297;51.442;6.996;2023-04-22T02:47:53;99538.66;;;13.03;51.28
4570;BME280;2297;51.442;6.996;2023-04-22T02:50:21;99535.13;;;13.03;51.25
4570;BME280;2297;51.442;6.996;2023-04-22T02:52:48;99533.22;;;13.06;51.35
4570;BME280;2297;51.442;6.996;2023-04-22T02:55:15;99535.78;;;13.08;51.30
4570;BME280;2297;51.442;6.996;2023-04-22T02:57:42;99531.50;;;13.05;51.11
4570;BME280;2297;51.442;6.996;2023-04-22T03:00:09;99526.13;;;13.07;51.36
4570;BME280;2297;51.442;6.996;2023-04-22T03:02:35;99520.81;;;13.07;51.00
4570;BME280;2297;51.442;6.996;2023-04-22T03:05:03;99524.34;;;13.07;51.00
4570;BME280;2297;51.442;6.996;2023-04-22T03:07:31;99520.63;;;13.11;50.78
4570;BME280;2297;51.442;6.996;2023-04-22T03:09:57;99513.59;;;13.10;51.12
4570;BME280;2297;51.442;6.996;2023-04-22T03:12:24;99515.59;;;13.05;51.23
4570;BME280;2297;51.442;6.996;2023-04-22T03:14:51;99509.38;;;13.06;51.24
4570;BME280;2297;51.442;6.996;2023-04-22T03:17:17;99510.03;;;13.11;51.23
4570;BME280;2297;51.442;6.996;2023-04-22T03:19:45;99502.16;;;13.10;51.34
4570;BME280;2297;51.442;6.996;2023-04-22T03:22:11;99500.13;;;13.15;51.38
4570;BME280;2297;51.442;6.996;2023-04-22T03:24:39;99499.13;;;13.18;51.30
4570;BME280;2297;51.442;6.996;2023-04-22T03:27:06;99499.53;;;13.08;51.03
4570;BME280;2297;51.442;6.996;2023-04-22T03:29:33;99495.97;;;13.09;51.26
4570;BME280;2297;51.442;6.996;2023-04-22T03:32:00;99495.84;;;13.12;51.56
4570;BME280;2297;51.442;6.996;2023-04-22T03:34:26;99501.00;;;13.16;51.24
4570;BME280;2297;51.442;6.996;2023-04-22T03:36:53;99492.91;;;13.19;51.19
4570;BME280;2297;51.442;6.996;2023-04-22T03:39:20;99498.09;;;13.22;50.97
4570;BME280;2297;51.442;6.996;2023-04-22T03:41:47;99495.44;;;13.22;50.98
4570;BME280;2297;51.442;6.996;2023-04-22T03:44:14;99491.59;;;13.29;50.57
4570;BME280;2297;51.442;6.996;2023-04-22T03:46:41;99492.66;;;13.25;50.42
4570;BME280;2297;51.442;6.996;2023-04-22T03:49:07;99485.63;;;13.24;50.70
4570;BME280;2297;51.442;6.996;2023-04-22T03:51:34;99483.50;;;13.11;50.63
4570;BME280;2297;51.442;6.996;2023-04-22T03:57:24;99485.75;;;13.21;50.90
4570;BME280;2297;51.442;6.996;2023-04-22T03:59:50;99491.91;;;13.21;50.62
4570;BME280;2297;51.442;6.996;2023-04-22T04:02:17;99480.34;;;13.24;50.66
4570;BME280;2297;51.442;6.996;2023-04-22T04:04:44;99473.50;;;13.18;50.72
4570;BME280;2297;51.442;6.996;2023-04-22T04:07:10;99471.56;;;13.22;51.16
4570;BME280;2297;51.442;6.996;2023-04-22T04:09:37;99473.44;;;13.20;50.81
4570;BME280;2297;51.442;6.996;2023-04-22T04:12:07;99477.06;;;13.17;50.88
4570;BME280;2297;51.442;6.996;2023-04-22T04:14:34;99479.78;;;13.16;50.60
4570;BME280;2297;51.442;6.996;2023-04-22T04:17:01;99474.56;;;13.14;50.55
4570;BME280;2297;51.442;6.996;2023-04-22T04:19:28;99474.34;;;13.19;50.50
4570;BME280;2297;51.442;6.996;2023-04-22T04:21:55;99472.63;;;13.18;50.56
4570;BME280;2297;51.442;6.996;2023-04-22T04:24:22;99472.50;;;13.21;50.71
4570;BME280;2297;51.442;6.996;2023-04-22T04:26:48;99470.78;;;13.20;50.72
4570;BME280;2297;51.442;6.996;2023-04-22T04:29:15;99463.59;;;13.23;50.37
4570;BME280;2297;51.442;6.996;2023-04-22T04:31:45;99455.63;;;13.23;50.43
4570;BME280;2297;51.442;6.996;2023-04-22T04:34:12;99451.03;;;13.27;50.45
4570;BME280;2297;51.442;6.996;2023-04-22T04:36:39;99452.75;;;13.28;50.18
4570;BME280;2297;51.442;6.996;2023-04-22T04:39:06;99450.03;;;13.29;50.09
4570;BME280;2297;51.442;6.996;2023-04-22T04:41:32;99460.59;;;13.31;50.15
4570;BME280;2297;51.442;6.996;2023-04-22T04:43:59;99452.91;;;13.25;49.79
4570;BME280;2297;51.442;6.996;2023-04-22T04:46:26;99457.13;;;13.29;49.88
4570;BME280;2297;51.442;6.996;2023-04-22T04:48:55;99460.63;;;13.29;49.79
4570;BME280;2297;51.442;6.996;2023-04-22T04:51:21;99463.94;;;13.35;49.29
4570;BME280;2297;51.442;6.996;2023-04-22T04:53:48;99461.34;;;13.33;49.61
4570;BME280;2297;51.442;6.996;2023-04-22T04:56:15;99453.31;;;13.35;49.38
4570;BME280;2297;51.442;6.996;2023-04-22T04:58:41;99452.31;;;13.37;49.41
4570;BME280;2297;51.442;6.996;2023-04-22T05:01:09;99458.84;;;13.30;49.18
4570;BME280;2297;51.442;6.996;2023-04-22T05:03:35;99457.97;;;13.29;49.11
4570;BME280;2297;51.442;6.996;2023-04-22T05:06:05;99459.63;;;13.32;49.12
4570;BME280;2297;51.442;6.996;2023-04-22T05:08:32;99449.31;;;13.26;49.36
4570;BME280;2297;51.442;6.996;2023-04-22T05:10:58;99450.97;;;13.28;49.34
4570;BME280;2297;51.442;6.996;2023-04-22T05:13:25;99440.00;;;13.36;49.11
4570;BME280;2297;51.442;6.996;2023-04-22T05:15:52;99437.72;;;13.47;48.85
4570;BME280;2297;51.442;6.996;2023-04-22T05:18:20;99431.34;;;13.52;48.45
4570;BME280;2297;51.442;6.996;2023-04-22T05:20:46;99434.84;;;13.52;48.62
4570;BME280;2297;51.442;6.996;2023-04-22T05:23:39;99431.50;;;13.49;48.31
4570;BME280;2297;51.442;6.996;2023-04-22T05:26:06;99432.06;;;13.55;48.06
4570;BME280;2297;51.442;6.996;2023-04-22T05:28:34;99433.97;;;13.52;48.34
4570;BME280;2297;51.442;6.996;2023-04-22T05:31:01;99444.75;;;13.49;48.51
4570;BME280;2297;51.442;6.996;2023-04-22T05:33:30;99436.78;;;13.49;48.31
4570;BME280;2297;51.442;6.996;2023-04-22T05:35:57;99428.84;;;13.49;48.16
4570;BME280;2297;51.442;6.996;2023-04-22T05:38:23;99431.59;;;13.45;48.04
4570;BME280;2297;51.442;6.996;2023-04-22T05:40:51;99433.84;;;13.55;48.12
4570;BME280;2297;51.442;6.996;2023-04-22T05:43:18;99431.34;;;13.52;48.35
4570;BME280;2297;51.442;6.996;2023-04-22T05:45:45;99431.81;;;13.60;47.99
4570;BME280;2297;51.442;6.996;2023-04-22T05:48:12;99442.16;;;13.66;47.98
4570;BME280;2297;51.442;6.996;2023-04-22T05:50:38;99435.59;;;13.73;47.51
4570;BME280;2297;51.442;6.996;2023-04-22T05:53:05;99443.28;;;13.79;47.60
4570;BME280;2297;51.442;6.996;2023-04-22T05:55:31;99440.16;;;13.71;47.35
4570;BME280;2297;51.442;6.996;2023-04-22T05:57:59;99440.34;;;13.86;46.97
4570;BME280;2297;51.442;6.996;2023-04-22T06:00:26;99451.16;;;13.81;47.05
4570;BME280;2297;51.442;6.996;2023-04-22T06:02:53;99449.53;;;13.78;47.02
4570;BME280;2297;51.442;6.996;2023-04-22T06:05:19;99447.50;;;13.84;46.96
4570;BME280;2297;51.442;6.996;2023-04-22T06:07:51;99441.00;;;13.91;46.92
4570;BME280;2297;51.442;6.996;2023-04-22T06:10:18;99447.69;;;13.98;47.15
4570;BME280;2297;51.442;6.996;2023-04-22T06:12:47;99449.19;;;14.04;46.94
4570;BME280;2297;51.442;6.996;2023-04-22T06:15:15;99445.53;;;14.06;46.89
4570;BME280;2297;51.442;6.996;2023-04-22T06:17:42;99449.63;;;14.13;46.91
4570;BME280;2297;51.442;6.996;2023-04-22T06:20:10;99446.44;;;14.24;46.82
4570;BME280;2297;51.442;6.996;2023-04-22T06:22:37;99445.91;;;14.35;46.46
4570;BME280;2297;51.442;6.996;2023-04-22T06:25:05;99446.84;;;14.34;46.73
4570;BME280;2297;51.442;6.996;2023-04-22T06:27:31;99444.06;;;14.37;46.44
4570;BME280;2297;51.442;6.996;2023-04-22T06:29:58;99438.66;;;14.39;46.98
4570;BME280;2297;51.442;6.996;2023-04-22T06:32:26;99437.00;;;14.36;46.62
4570;BME280;2297;51.442;6.996;2023-04-22T06:34:53;99436.84;;;14.39;46.60
4570;BME280;2297;51.442;6.996;2023-04-22T06:37:19;99441.22;;;14.40;46.88
4570;BME280;2297;51.442;6.996;2023-04-22T06:39:48;99431.78;;;14.35;46.61
4570;BME280;2297;51.442;6.996;2023-04-22T06:42:42;99433.44;;;14.37;46.79
4570;BME280;2297;51.442;6.996;2023-04-22T06:45:33;99433.25;;;14.40;46.61
4570;BME280;2297;51.442;6.996;2023-04-22T06:48:02;99431.53;;;14.39;46.33
4570;BME280;2297;51.442;6.996;2023-04-22T06:50:28;99427.94;;;14.40;46.52
4570;BME280;2297;51.442;6.996;2023-04-22T06:52:55;99423.19;;;14.47;46.60
4570;BME280;2297;51.442;6.996;2023-04-22T06:55:21;99429.50;;;14.44;46.61
4570;BME280;2297;51.442;6.996;2023-04-22T06:57:49;99424.34;;;14.59;46.83
4570;BME280;2297;51.442;6.996;2023-04-22T07:00:16;99423.41;;;14.60;46.39
4570;BME280;2297;51.442;6.996;2023-04-22T07:02:43;99429.50;;;14.62;46.23
4570;BME280;2297;51.442;6.996;2023-04-22T07:05:11;99428.16;;;14.71;45.75
4570;BME280;2297;51.442;6.996;2023-04-22T07:07:38;99426.97;;;14.76;45.37
4570;BME280;2297;51.442;6.996;2023-04-22T07:10:05;99428.88;;;14.74;45.19
4570;BME280;2297;51.442;6.996;2023-04-22T07:12:31;99427.53;;;14.66;45.22
4570;BME280;2297;51.442;6.996;2023-04-22T07:14:58;99419.72;;;14.80;45.19
4570;BME280;2297;51.442;6.996;2023-04-22T07:17:25;99426.28;;;14.90;44.27
4570;BME280;2297;51.442;6.996;2023-04-22T07:19:51;99424.75;;;15.02;44.23
4570;BME280;2297;51.442;6.996;2023-04-22T07:22:19;99437.09;;;15.03;44.21
4570;BME280;2297;51.442;6.996;2023-04-22T07:24:46;99426.81;;;14.97;43.69
4570;BME280;2297;51.442;6.996;2023-04-22T07:27:13;99420.13;;;15.06;43.42
4570;BME280;2297;51.442;6.996;2023-04-22T07:32:56;99416.50;;;15.40;42.76
4570;BME280;2297;51.442;6.996;2023-04-22T07:35:22;99421.91;;;15.39;42.18
4570;BME280;2297;51.442;6.996;2023-04-22T07:37:50;99416.78;;;15.52;42.27
4570;BME280;2297;51.442;6.996;2023-04-22T07:40:17;99414.38;;;15.63;42.29
4570;BME280;2297;51.442;6.996;2023-04-22T07:42:44;99417.13;;;15.61;42.03
4570;BME280;2297;51.442;6.996;2023-04-22T07:45:11;99399.78;;;15.70;41.85
4570;BME280;2297;51.442;6.996;2023-04-22T07:47:38;99405.19;;;15.37;41.77
4570;BME280;2297;51.442;6.996;2023-04-22T07:50:05;99410.63;;;15.67;40.68
4570;BME280;2297;51.442;6.996;2023-04-22T07:52:32;99406.84;;;15.71;41.04
4570;BME280;2297;51.442;6.996;2023-04-22T07:55:00;99411.47;;;15.68;41.08
4570;BME280;2297;51.442;6.996;2023-04-22T07:57:27;99411.19;;;15.40;41.59
4570;BME280;2297;51.442;6.996;2023-04-22T07:59:54;99411.78;;;15.61;41.17
4570;BME280;2297;51.442;6.996;2023-04-22T08:02:20;99408.00;;;15.82;41.23
4570;BME280;2297;51.442;6.996;2023-04-22T08:04:47;99405.19;;;15.85;41.01
4570;BME280;2297;51.442;6.996;2023-04-22T08:07:14;99400.28;;;15.93;40.87
4570;BME280;2297;51.442;6.996;2023-04-22T08:09:43;99400.53;;;15.72;41.13
4570;BME280;2297;51.442;6.996;2023-04-22T08:12:12;99405.97;;;15.55;40.85
4570;BME280;2297;51.442;6.996;2023-04-22T08:14:39;99384.72;;;15.85;40.17
4570;BME280;2297;51.442;6.996;2023-04-22T08:17:06;99387.22;;;15.88;40.25
4570;BME280;2297;51.442;6.996;2023-04-22T08:19:32;99389.03;;;16.34;39.60
4570;BME280;2297;51.442;6.996;2023-04-22T08:21:59;99378.31;;;16.20;39.84
4570;BME280;2297;51.442;6.996;2023-04-22T08:24:25;99389.75;;;16.22;39.64
4570;BME280;2297;51.442;6.996;2023-04-22T08:26:52;99388.66;;;16.40;39.11
4570;BME280;2297;51.442;6.996;2023-04-22T08:29:20;99383.75;;;16.63;38.85
4570;BME280;2297;51.442;6.996;2023-04-22T08:31:47;99388.13;;;16.78;38.78
4570;BME280;2297;51.442;6.996;2023-04-22T08:34:13;99386.50;;;16.61;38.28
4570;BME280;2297;51.442;6.996;2023-04-22T08:36:40;99380.03;;;16.51;38.55
4570;BME280;2297;51.442;6.996;2023-04-22T08:39:07;99384.44;;;16.67;38.40
4570;BME280;2297;51.442;6.996;2023-04-22T08:41:35;99379.56;;;16.73;38.30
4570;BME280;2297;51.442;6.996;2023-04-22T08:44:02;99379.34;;;16.47;38.20
4570;BME280;2297;51.442;6.996;2023-04-22T08:46:30;99375.97;;;16.89;38.14
4570;BME280;2297;51.442;6.996;2023-04-22T08:48:57;99367.00;;;16.75;37.81
4570;BME280;2297;51.442;6.996;2023-04-22T08:51:27;99367.75;;;17.21;37.41
4570;BME280;2297;51.442;6.996;2023-04-22T08:53:54;99358.53;;;17.54;36.76
4570;BME280;2297;51.442;6.996;2023-04-22T08:56:20;99357.84;;;17.37;37.12
4570;BME280;2297;51.442;6.996;2023-04-22T08:58:47;99366.66;;;17.67;36.34
4570;BME280;2297;51.442;6.996;2023-04-22T09:01:14;99372.16;;;17.07;36.80
4570;BME280;2297;51.442;6.996;2023-04-22T09:03:44;99370.16;;;16.96;36.94
4570;BME280;2297;51.442;6.996;2023-04-22T09:06:11;99362.28;;;16.95;37.09
4570;BME280;2297;51.442;6.996;2023-04-22T09:08:37;99354.16;;;17.25;36.56
4570;BME280;2297;51.442;6.996;2023-04-22T09:11:04;99340.94;;;16.95;37.02
4570;BME280;2297;51.442;6.996;2023-04-22T09:13:31;99353.66;;;17.33;36.70
4570;BME280;2297;51.442;6.996;2023-04-22T09:15:58;99345.50;;;17.49;36.68
4570;BME280;2297;51.442;6.996;2023-04-22T09:18:25;99343.91;;;17.74;36.29
4570;BME280;2297;51.442;6.996;2023-04-22T09:20:55;99355.13;;;17.52;36.76
4570;BME280;2297;51.442;6.996;2023-04-22T09:23:21;99345.69;;;17.88;36.41
4570;BME280;2297;51.442;6.996;2023-04-22T09:25:48;99345.34;;;17.79;36.27
4570;BME280;2297;51.442;6.996;2023-04-22T09:28:17;99342.66;;;17.79;36.11
4570;BME280;2297;51.442;6.996;2023-04-22T09:30:45;99341.22;;;18.01;35.67
4570;BME280;2297;51.442;6.996;2023-04-22T09:33:12;99342.50;;;17.95;35.82
4570;BME280;2297;51.442;6.996;2023-04-22T09:35:40;99348.13;;;17.91;35.70
4570;BME280;2297;51.442;6.996;2023-04-22T09:38:10;99351.28;;;18.10;35.18
4570;BME280;2297;51.442;6.996;2023-04-22T09:40:41;99343.13;;;17.86;35.68
4570;BME280;2297;51.442;6.996;2023-04-22T09:43:08;99346.50;;;18.16;35.57
4570;BME280;2297;51.442;6.996;2023-04-22T09:45:37;99337.09;;;18.36;34.75
4570;BME280;2297;51.442;6.996;2023-04-22T09:48:06;99341.75;;;18.47;34.77
4570;BME280;2297;51.442;6.996;2023-04-22T09:50:34;99343.88;;;18.67;35.15
4570;BME280;2297;51.442;6.996;2023-04-22T09:53:02;99338.50;;;18.41;34.93
4570;BME280;2297;51.442;6.996;2023-04-22T09:55:34;99337.78;;;18.91;34.58
4570;BME280;2297;51.442;6.996;2023-04-22T09:58:05;99332.72;;;18.99;34.58
4570;BME280;2297;51.442;6.996;2023-04-22T10:00:35;99342.13;;;18.92;34.19
4570;BME280;2297;51.442;6.996;2023-04-22T10:03:04;99336.16;;;18.88;34.68
4570;BME280;2297;51.442;6.996;2023-04-22T10:05:31;99329.69;;;19.04;34.52
4570;BME280;2297;51.442;6.996;2023-04-22T10:08:02;99334.28;;;19.15;34.16
4570;BME280;2297;51.442;6.996;2023-04-22T10:10:29;99329.50;;;19.07;34.58
4570;BME280;2297;51.442;6.996;2023-04-22T10:12:57;99328.44;;;19.09;34.54
4570;BME280;2297;51.442;6.996;2023-04-22T10:15:24;99328.53;;;19.21;34.58
4570;BME280;2297;51.442;6.996;2023-04-22T10:17:52;99324.56;;;19.14;34.56
4570;BME280;2297;51.442;6.996;2023-04-22T10:20:26;99319.16;;;19.39;34.07
4570;BME280;2297;51.442;6.996;2023-04-22T10:22:55;99313.38;;;19.57;34.37
4570;BME280;2297;51.442;6.996;2023-04-22T10:25:22;99310.66;;;19.70;34.64
4570;BME280;2297;51.442;6.996;2023-04-22T10:27:53;99321.69;;;19.41;34.59
4570;BME280;2297;51.442;6.996;2023-04-22T10:30:28;99310.53;;;19.71;34.24
4570;BME280;2297;51.442;6.996;2023-04-22T10:32:55;99308.09;;;19.68;33.73
4570;BME280;2297;51.442;6.996;2023-04-22T10:35:26;99314.88;;;19.85;33.85
4570;BME280;2297;51.442;6.996;2023-04-22T10:37:53;99308.97;;;20.04;33.39
4570;BME280;2297;51.442;6.996;2023-04-22T10:40:20;99314.97;;;20.08;33.34
4570;BME280;2297;51.442;6.996;2023-04-22T10:42:50;99317.78;;;20.06;33.22
4570;BME280;2297;51.442;6.996;2023-04-22T10:45:17;99329.19;;;19.97;33.49
4570;BME280;2297;51.442;6.996;2023-04-22T10:47:45;99323.66;;;19.63;33.65
4570;BME280;2297;51.442;6.996;2023-04-22T10:50:17;99326.09;;;19.66;33.95
4570;BME280;2297;51.442;6.996;2023-04-22T10:52:48;99320.00;;;19.64;33.86
4570;BME280;2297;51.442;6.996;2023-04-22T10:55:15;99314.34;;;20.04;33.39
4570;BME280;2297;51.442;6.996;2023-04-22T10:57:43;99314.41;;;20.27;32.96
4570;BME280;2297;51.442;6.996;2023-04-22T11:00:33;99321.81;;;20.12;32.76
4570;BME280;2297;51.442;6.996;2023-04-22T11:03:11;99315.53;;;20.47;32.88
4570;BME280;2297;51.442;6.996;2023-04-22T11:05:38;99330.19;;;20.07;33.79
4570;BME280;2297;51.442;6.996;2023-04-22T11:08:10;99315.72;;;20.21;33.38
4570;BME280;2297;51.442;6.996;2023-04-22T11:10:40;99315.94;;;19.83;33.96
4570;BME280;2297;51.442;6.996;2023-04-22T11:13:08;99323.34;;;20.03;33.52
4570;BME280;2297;51.442;6.996;2023-04-22T11:15:37;99311.16;;;19.99;33.64
4570;BME280;2297;51.442;6.996;2023-04-22T11:18:09;99323.03;;;19.84;34.35
4570;BME280;2297;51.442;6.996;2023-04-22T11:20:36;99324.81;;;20.54;33.18
4570;BME280;2297;51.442;6.996;2023-04-22T11:23:03;99328.84;;;20.49;32.99
4570;BME280;2297;51.442;6.996;2023-04-22T11:25:30;99336.34;;;20.21;32.85
4570;BME280;2297;51.442;6.996;2023-04-22T11:27:57;99346.66;;;20.14;33.27
4570;BME280;2297;51.442;6.996;2023-04-22T11:30:25;99351.34;;;19.99;33.17
4570;BME280;2297;51.442;6.996;2023-04-22T11:32:53;99322.06;;;20.20;32.98
4570;BME280;2297;51.442;6.996;2023-04-22T11:35:23;99333.47;;;20.58;32.70
4570;BME280;2297;51.442;6.996;2023-04-22T11:37:51;99332.69;;;20.44;32.67
4570;BME280;2297;51.442;6.996;2023-04-22T11:40:20;99330.31;;;20.53;32.76
4570;BME280;2297;51.442;6.996;2023-04-22T11:42:49;99322.91;;;20.68;32.48
4570;BME280;2297;51.442;6.996;2023-04-22T11:45:16;99328.13;;;20.58;32.11
4570;BME280;2297;51.442;6.996;2023-04-22T11:47:43;99327.81;;;20.27;32.78
4570;BME280;2297;51.442;6.996;2023-04-22T11:50:12;99331.94;;;20.31;32.63
4570;BME280;2297;51.442;6.996;2023-04-22T11:52:45;99325.66;;;19.72;33.84
4570;BME280;2297;51.442;6.996;2023-04-22T11:55:13;99321.41;;;19.57;34.59
4570;BME280;2297;51.442;6.996;2023-04-22T11:57:40;99313.63;;;20.02;34.18
4570;BME280;2297;51.442;6.996;2023-04-22T12:00:11;99307.38;;;20.49;33.57
4570;BME280;2297;51.442;6.996;2023-04-22T12:02:38;99312.00;;;20.47;33.55
4570;BME280;2297;51.442;6.996;2023-04-22T12:05:08;99305.03;;;20.44;33.33
4570;BME280;2297;51.442;6.996;2023-04-22T12:07:37;99313.16;;;20.78;32.65
4570;BME280;2297;51.442;6.996;2023-04-22T12:10:06;99310.53;;;20.54;33.00
4570;BME280;2297;51.442;6.996;2023-04-22T12:12:33;99313.63;;;20.02;33.68
4570;BME280;2297;51.442;6.996;2023-04-22T12:15:11;99320.78;;;20.02;33.39
4570;BME280;2297;51.442;6.996;2023-04-22T12:17:39;99324.91;;;20.30;32.80
4570;BME280;2297;51.442;6.996;2023-04-22T12:20:10;99310.28;;;20.34;33.08
4570;BME280;2297;51.442;6.996;2023-04-22T12:22:36;99308.13;;;20.62;32.56
4570;BME280;2297;51.442;6.996;2023-04-22T12:25:03;99307.38;;;20.60;32.50
4570;BME280;2297;51.442;6.996;2023-04-22T12:27:32;99329.97;;;20.69;32.27
4570;BME280;2297;51.442;6.996;2023-04-22T12:29:58;99317.53;;;20.90;32.23
4570;BME280;2297;51.442;6.996;2023-04-22T12:32:26;99311.78;;;20.61;32.48
4570;BME280;2297;51.442;6.996;2023-04-22T12:34:52;99316.13;;;20.51;32.77
4570;BME280;2297;51.442;6.996;2023-04-22T12:37:19;99327.06;;;20.83;32.07
4570;BME280;2297;51.442;6.996;2023-04-22T12:39:46;99324.09;;;20.98;32.05
4570;BME280;2297;51.442;6.996;2023-04-22T12:42:12;99321.19;;;20.78;32.28
4570;BME280;2297;51.442;6.996;2023-04-22T12:44:41;99317.91;;;20.74;32.58
4570;BME280;2297;51.442;6.996;2023-04-22T12:47:08;99327.88;;;20.72;32.75
4570;BME280;2297;51.442;6.996;2023-04-22T12:49:35;99313.66;;;20.83;32.62
4570;BME280;2297;51.442;6.996;2023-04-22T12:52:03;99307.13;;;21.20;32.15
4570;BME280;2297;51.442;6.996;2023-04-22T12:54:30;99298.69;;;21.24;32.62
4570;BME280;2297;51.442;6.996;2023-04-22T12:56:56;99297.53;;;20.94;32.90
4570;BME280;2297;51.442;6.996;2023-04-22T12:59:23;99303.59;;;20.63;33.45
4570;BME280;2297;51.442;6.996;2023-04-22T13:01:51;99303.47;;;21.21;33.10
4570;BME280;2297;51.442;6.996;2023-04-22T13:04:19;99310.69;;;21.09;32.69
4570;BME280;2297;51.442;6.996;2023-04-22T13:06:46;99301.03;;;21.06;32.95
4570;BME280;2297;51.442;6.996;2023-04-22T13:09:14;99283.88;;;21.53;32.67
4570;BME280;2297;51.442;6.996;2023-04-22T13:11:44;99313.69;;;21.50;32.21
4570;BME280;2297;51.442;6.996;2023-04-22T13:14:13;99309.06;;;21.29;32.78
4570;BME280;2297;51.442;6.996;2023-04-22T13:16:40;99304.66;;;21.28;32.83
4570;BME280;2297;51.442;6.996;2023-04-22T13:19:08;99314.19;;;21.43;32.79
4570;BME280;2297;51.442;6.996;2023-04-22T13:21:34;99308.38;;;21.59;32.69
4570;BME280;2297;51.442;6.996;2023-04-22T13:24:01;99302.50;;;21.22;33.45
4570;BME280;2297;51.442;6.996;2023-04-22T13:26:28;99303.38;;;21.11;33.22
4570;BME280;2297;51.442;6.996;2023-04-22T13:28:55;99311.03;;;21.27;33.00
4570;BME280;2297;51.442;6.996;2023-04-22T13:31:22;99304.25;;;20.89;33.38